Time;durP1;ratioP1;P1;durP2;ratioP2;P2;SDS_P1;SDS_P2;PMS_P1;PMS_P2;Temp;Humidity;BMP_temperature;BMP_pressure;BME280_temperature;BME280_humidity;BME280_pressure;Samples;Min_cycle;Max_cycle;Signal;HPM_P1;HPM_P2
2022/06/01 00:01:12;;;;;;;8.23;5.65;;;;;;;9.68;87.00;93795.94;5110249;28;20443;-51
2022/06/01 00:03:41;;;;;;;7.43;4.70;;;;;;;9.65;87.78;93793.22;5093999;28;20070;-52
2022/06/01 00:06:09;;;;;;;7.85;4.57;;;;;;;9.65;87.49;93796.75;5091481;28;20523;-52
2022/06/01 00:08:37;;;;;;;7.30;4.90;;;;;;;9.65;87.52;93798.72;5110243;28;20040;-53
2022/06/01 00:11:04;;;;;;;7.43;4.77;;;;;;;9.60;87.19;93795.25;5110013;28;20043;-49
2022/06/01 00:13:31;;;;;;;8.30;4.63;;;;;;;9.62;88.03;93802.25;5113548;28;20043;-48
2022/06/01 00:15:58;;;;;;;7.68;4.95;;;;;;;9.63;88.27;93804.59;5110488;28;20039;-52
2022/06/01 00:18:25;;;;;;;6.65;4.78;;;;;;;9.58;88.11;93800.38;5114029;28;20040;-48
2022/06/01 00:20:53;;;;;;;7.65;5.05;;;;;;;9.56;88.13;93800.00;5113677;28;20534;-48
2022/06/01 00:23:21;;;;;;;9.03;6.50;;;;;;;9.56;88.04;93799.22;5113805;28;20070;-48
2022/06/01 00:25:48;;;;;;;13.95;8.82;;;;;;;9.56;88.98;93797.25;5113611;28;20631;-50
2022/06/01 00:28:15;;;;;;;8.77;5.55;;;;;;;9.45;89.47;93801.31;5114201;28;20054;-48
2022/06/01 00:30:41;;;;;;;7.93;5.20;;;;;;;9.30;90.31;93795.25;5113824;28;20035;-53
2022/06/01 00:33:09;;;;;;;9.20;5.40;;;;;;;9.21;90.41;93801.22;5113251;28;20617;-52
2022/06/01 00:35:36;;;;;;;10.63;6.00;;;;;;;9.11;91.01;93802.13;5114170;28;20051;-47
2022/06/01 00:38:03;;;;;;;7.60;5.18;;;;;;;9.10;90.14;93795.09;5113228;28;20039;-47
2022/06/01 00:40:36;;;;;;;6.50;4.80;;;;;;;9.08;89.52;93795.50;5097097;28;20052;-52
2022/06/01 00:43:18;;;;;;;8.82;5.15;;;;;;;9.03;89.52;93795.94;5113470;28;20091;-54
2022/06/01 00:45:45;;;;;;;7.25;4.97;;;;;;;8.88;89.83;93792.59;5095277;28;20419;-54
2022/06/01 00:48:13;;;;;;;9.53;4.97;;;;;;;8.87;89.59;93793.78;5113785;28;20403;-49
2022/06/01 00:50:43;;;;;;;9.20;5.40;;;;;;;8.97;89.87;93794.84;5104154;28;20373;-47
2022/06/01 00:53:15;;;;;;;7.65;5.10;;;;;;;8.97;90.08;93792.91;5104247;28;20750;-52
2022/06/01 00:55:45;;;;;;;7.95;5.28;;;;;;;9.02;90.27;93786.19;5114106;28;20050;-51
2022/06/01 00:58:20;;;;;;;6.60;4.88;;;;;;;9.02;89.62;93786.19;5113035;28;20751;-56
2022/06/01 01:00:50;;;;;;;8.57;5.70;;;;;;;9.03;90.35;93795.19;5097673;28;20047;-49
2022/06/01 01:03:19;;;;;;;8.10;5.07;;;;;;;9.02;89.45;93785.44;5113892;28;20115;-54
2022/06/01 01:05:54;;;;;;;37.33;20.42;;;;;;;8.99;89.57;93787.78;5113129;28;20459;-53
2022/06/01 01:08:21;;;;;;;11.00;5.72;;;;;;;8.71;90.24;93786.16;5113599;28;20104;-50
2022/06/01 01:10:48;;;;;;;10.48;5.55;;;;;;;8.64;90.42;93783.47;5112958;28;20408;-56
2022/06/01 01:13:15;;;;;;;12.57;6.67;;;;;;;8.60;91.21;93791.69;5113450;28;20050;-52
2022/06/01 01:15:52;;;;;;;20.50;6.90;;;;;;;8.59;92.50;93779.22;5110652;28;20052;-50
2022/06/01 01:18:23;;;;;;;13.52;7.20;;;;;;;8.68;92.67;93776.00;5112511;28;21529;-52
2022/06/01 01:21:07;;;;;;;10.88;5.80;;;;;;;8.70;92.00;93778.34;5112700;28;20054;-51
2022/06/01 01:23:50;;;;;;;9.60;5.97;;;;;;;8.78;91.55;93777.84;5093694;28;20036;-56
2022/06/01 01:26:18;;;;;;;10.40;6.97;;;;;;;8.83;92.14;93778.59;5096735;28;20047;-47
2022/06/01 01:28:45;;;;;;;11.73;7.00;;;;;;;8.76;92.68;93780.22;5112729;28;20043;-53
2022/06/01 01:31:20;;;;;;;149.18;9.70;;;;;;;8.67;93.10;93779.94;5112827;28;20043;-48
2022/06/01 01:33:49;;;;;;;18.92;7.60;;;;;;;8.86;93.06;93784.03;5102182;28;20055;-52
2022/06/01 01:36:20;;;;;;;25.30;7.30;;;;;;;8.99;93.09;93782.31;5076795;28;20048;-51
2022/06/01 01:39:09;;;;;;;30.93;7.53;;;;;;;8.96;93.80;93780.38;5112244;28;20588;-52
2022/06/01 01:41:48;;;;;;;25.33;7.65;;;;;;;8.89;94.78;93774.97;5112719;28;20050;-48
2022/06/01 01:44:33;;;;;;;67.72;8.93;;;;;;;8.83;95.52;93778.59;5111739;28;21680;-49
2022/06/01 01:47:01;;;;;;;25.45;8.43;;;;;;;8.90;95.67;93782.03;5112147;28;20044;-51
2022/06/01 01:49:34;;;;;;;13.80;7.30;;;;;;;9.00;95.41;93775.66;5101730;28;20075;-53
2022/06/01 01:52:04;;;;;;;15.87;7.37;;;;;;;9.08;95.27;93789.25;5079696;28;20039;-56
2022/06/01 01:55:15;;;;;;;21.60;7.25;;;;;;;8.93;94.39;93788.63;5107137;28;20044;-49
2022/06/01 01:58:22;;;;;;;15.10;7.22;;;;;;;8.92;94.56;93792.56;5058254;28;20789;-47
2022/06/01 02:00:56;;;;;;;10.45;6.90;;;;;;;9.00;94.54;93786.59;5023161;28;20262;-50
2022/06/01 02:03:32;;;;;;;10.13;6.70;;;;;;;9.05;93.76;93784.59;5098644;28;20385;-47
2022/06/01 02:06:12;;;;;;;9.03;6.37;;;;;;;9.11;93.90;93788.44;5111826;28;20050;-54
2022/06/01 02:08:48;;;;;;;10.43;6.75;;;;;;;9.15;93.25;93792.66;5112289;28;20473;-51
2022/06/01 02:14:32;;;;;;;10.48;6.80;;;;;;;9.29;93.16;93783.50;5111252;28;22258;-47
2022/06/01 02:17:40;;;;;;;13.65;7.28;;;;;;;9.34;92.57;93785.03;5109278;28;20575;-52
2022/06/01 02:20:15;;;;;;;11.07;6.70;;;;;;;9.36;91.75;93780.69;5057941;28;20065;-47
2022/06/01 02:22:42;;;;;;;13.15;6.85;;;;;;;9.29;92.16;93780.00;5112142;28;20068;-54
2022/06/01 02:25:11;;;;;;;17.52;6.95;;;;;;;9.22;91.83;93775.41;5086908;28;22052;-49
2022/06/01 02:27:41;;;;;;;16.30;6.75;;;;;;;9.09;92.73;93769.66;5111877;28;20044;-52
2022/06/01 02:30:14;;;;;;;10.57;6.70;;;;;;;9.12;91.80;93779.81;5092602;28;20058;-48
2022/06/01 02:32:41;;;;;;;10.67;5.60;;;;;;;9.06;90.78;93767.75;5109332;28;20039;-48
2022/06/01 02:35:11;;;;;;;32.75;7.00;;;;;;;8.94;92.25;93771.81;5099471;28;20242;-48
2022/06/01 02:37:41;;;;;;;10.38;6.15;;;;;;;9.04;91.50;93770.13;5111895;28;20043;-53
2022/06/01 02:40:13;;;;;;;10.80;6.20;;;;;;;9.00;91.12;93772.13;5110875;28;20050;-49
2022/06/01 02:42:45;;;;;;;50.72;8.60;;;;;;;8.89;92.58;93772.25;5111540;28;20077;-50
2022/06/01 02:45:13;;;;;;;38.70;7.67;;;;;;;8.87;93.74;93777.34;5110776;28;20070;-49
2022/06/01 02:47:43;;;;;;;59.50;7.88;;;;;;;8.94;94.51;93777.28;5111603;28;20046;-47
2022/06/01 02:50:13;;;;;;;22.27;8.10;;;;;;;8.95;94.06;93784.31;5110688;28;20932;-47
2022/06/01 02:52:40;;;;;;;27.35;8.00;;;;;;;9.07;93.50;93782.22;5109045;28;20040;-48
2022/06/01 02:55:09;;;;;;;16.80;7.50;;;;;;;9.00;93.34;93781.13;5109215;28;20510;-49
2022/06/01 02:57:38;;;;;;;48.87;8.30;;;;;;;8.92;94.51;93781.63;5111540;28;20051;-51
2022/06/01 03:00:27;;;;;;;35.47;8.43;;;;;;;8.96;95.42;93787.81;5110811;28;20046;-48
2022/06/01 03:02:57;;;;;;;16.50;8.23;;;;;;;9.12;95.04;93779.81;5110592;28;20043;-50
2022/06/01 03:05:27;;;;;;;49.85;9.15;;;;;;;9.03;95.23;93782.25;5111064;28;20069;-50
2022/06/01 03:07:55;;;;;;;18.48;8.30;;;;;;;9.04;95.66;93783.06;5110620;28;20406;-48
2022/06/01 03:10:23;;;;;;;14.17;7.93;;;;;;;9.11;94.88;93780.22;5111048;28;20043;-49
2022/06/01 03:12:50;;;;;;;23.30;8.25;;;;;;;9.10;94.96;93775.94;5110518;28;20381;-52
2022/06/01 03:15:20;;;;;;;26.92;8.00;;;;;;;9.06;94.44;93775.97;5092664;28;21462;-48
2022/06/01 03:17:47;;;;;;;23.65;8.35;;;;;;;9.04;94.54;93777.59;5110660;28;20043;-49
2022/06/01 03:20:21;;;;;;;17.23;8.07;;;;;;;8.97;94.25;93779.22;5110928;28;20461;-48
2022/06/01 03:22:56;;;;;;;13.33;7.67;;;;;;;9.02;94.15;93785.44;5110085;28;20043;-48
2022/06/01 03:25:24;;;;;;;14.75;7.40;;;;;;;9.10;93.55;93773.97;5092332;28;20054;-49
2022/06/01 03:27:52;;;;;;;18.83;8.93;;;;;;;8.81;94.70;93781.72;5110374;28;20050;-49
2022/06/01 03:30:20;;;;;;;21.85;8.77;;;;;;;8.77;95.99;93781.78;5110513;28;20284;-55
2022/06/01 03:32:47;;;;;;;13.90;8.52;;;;;;;8.91;95.79;93786.28;5110144;28;20047;-51
2022/06/01 03:35:16;;;;;;;14.23;8.73;;;;;;;8.93;94.70;93778.47;5110695;28;20048;-54
2022/06/01 03:37:43;;;;;;;18.92;8.48;;;;;;;8.88;94.64;93784.38;5106824;28;20036;-58
2022/06/01 03:40:11;;;;;;;16.35;9.05;;;;;;;8.81;95.68;93789.94;5092256;28;20046;-53
2022/06/01 03:42:38;;;;;;;26.40;9.82;;;;;;;8.71;96.95;93782.59;5095376;28;20541;-50
2022/06/01 03:47:53;;;;;;;119.47;11.17;;;;;;;8.58;97.73;93776.88;5089757;28;20036;-55
2022/06/01 03:50:19;;;;;;;67.97;9.65;;;;;;;8.56;98.05;93792.94;5101166;28;20411;-55
2022/06/01 03:52:46;;;;;;;17.88;9.43;;;;;;;8.71;97.59;93777.13;5109928;28;20040;-50
2022/06/01 03:55:14;;;;;;;18.63;9.10;;;;;;;8.89;97.28;93791.41;5092736;28;20055;-53
2022/06/01 03:57:42;;;;;;;15.82;9.13;;;;;;;8.75;96.18;93784.16;5110410;28;20445;-58
2022/06/01 04:00:14;;;;;;;13.17;8.23;;;;;;;8.61;96.56;93781.53;5109609;28;20407;-54
2022/06/01 04:02:41;;;;;;;10.63;7.32;;;;;;;8.74;95.68;93788.06;5110588;28;20495;-49
2022/06/01 04:05:11;;;;;;;18.35;8.57;;;;;;;8.78;95.17;93791.53;5109525;28;20627;-51
2022/06/01 04:07:38;;;;;;;20.55;8.77;;;;;;;8.79;95.62;93792.28;5110641;28;20043;-48
2022/06/01 04:10:06;;;;;;;34.13;9.30;;;;;;;8.79;96.01;93795.81;5109867;28;20039;-47
2022/06/01 04:12:32;;;;;;;30.40;8.77;;;;;;;8.73;95.82;93802.13;5098517;28;20561;-51
2022/06/01 04:14:59;;;;;;;23.67;9.20;;;;;;;8.78;96.79;93798.97;5105871;28;20385;-54
2022/06/01 04:17:26;;;;;;;23.17;9.55;;;;;;;8.90;95.83;93794.94;5110399;28;20377;-51
2022/06/01 04:19:53;;;;;;;27.20;8.73;;;;;;;8.93;96.20;93799.56;5109676;28;20051;-48
2022/06/01 04:22:21;;;;;;;37.63;9.13;;;;;;;9.09;94.56;93805.25;5109445;28;20036;-49
2022/06/01 04:24:49;;;;;;;15.10;8.10;;;;;;;9.30;94.38;93801.50;5104231;28;20042;-48
2022/06/01 04:27:16;;;;;;;15.32;8.27;;;;;;;9.54;92.74;93798.88;5091958;28;20381;-48
2022/06/01 04:29:43;;;;;;;26.70;10.48;;;;;;;9.71;90.67;93802.53;5110195;28;20048;-50
2022/06/01 04:32:19;;;;;;;20.75;8.35;;;;;;;9.39;91.53;93799.03;5109208;28;20601;-53
2022/06/01 04:34:45;;;;;;;22.60;7.78;;;;;;;9.46;91.71;93802.88;5109357;28;20072;-52
2022/06/01 04:37:12;;;;;;;42.37;8.20;;;;;;;9.26;92.42;93805.47;5107709;28;20046;-49
2022/06/01 04:39:39;;;;;;;27.92;8.48;;;;;;;9.39;92.92;93806.47;5087068;28;20044;-49
2022/06/01 04:42:07;;;;;;;28.38;8.07;;;;;;;9.96;90.15;93804.91;5103194;28;20686;-52
2022/06/01 04:44:34;;;;;;;44.08;8.45;;;;;;;9.86;89.67;93801.16;5089645;28;20050;-47
2022/06/01 04:47:01;;;;;;;14.52;8.27;;;;;;;9.95;90.14;93804.16;5102339;28;20051;-49
2022/06/01 04:49:27;;;;;;;17.40;12.07;;;;;;;10.74;87.90;93813.88;5109933;28;20500;-48
2022/06/01 04:51:54;;;;;;;13.32;7.50;;;;;;;10.92;85.78;93796.31;5109263;28;20040;-54
2022/06/01 04:54:21;;;;;;;14.43;7.65;;;;;;;10.87;85.33;93797.59;5082923;28;20050;-50
2022/06/01 04:56:47;;;;;;;12.07;7.70;;;;;;;10.41;86.45;93798.41;5109419;28;20042;-51
2022/06/01 04:59:17;;;;;;;26.23;7.68;;;;;;;10.00;86.70;93803.69;5092369;28;20048;-50
2022/06/01 05:01:44;;;;;;;23.90;7.90;;;;;;;9.64;89.32;93799.88;5112657;28;20044;-48
2022/06/01 05:04:12;;;;;;;28.65;7.88;;;;;;;9.93;87.86;93798.31;5113241;28;20389;-48
2022/06/01 05:06:39;;;;;;;53.95;7.78;;;;;;;10.04;87.17;93797.38;5113408;28;20114;-55
2022/06/01 05:09:06;;;;;;;34.85;8.43;;;;;;;10.42;86.51;93799.94;5112562;28;20047;-54
2022/06/01 05:11:34;;;;;;;31.02;7.50;;;;;;;10.32;85.25;93796.97;5095545;28;20040;-48
2022/06/01 05:14:01;;;;;;;19.97;7.43;;;;;;;11.02;83.38;93791.81;5098462;28;20050;-52
2022/06/01 05:16:27;;;;;;;15.68;7.35;;;;;;;11.11;82.59;93790.06;5113177;28;20503;-49
2022/06/01 05:18:55;;;;;;;15.55;7.25;;;;;;;10.61;84.47;93793.75;5098140;28;20549;-51
2022/06/01 05:21:22;;;;;;;20.58;8.68;;;;;;;10.97;84.14;93793.09;5112601;28;20039;-56
2022/06/01 05:23:49;;;;;;;15.25;8.18;;;;;;;11.82;81.37;93795.28;5106374;28;20387;-53
2022/06/01 05:26:16;;;;;;;16.63;7.90;;;;;;;11.90;79.72;93791.22;5110900;28;20039;-50
2022/06/01 05:28:42;;;;;;;12.35;8.50;;;;;;;10.93;83.49;93790.41;5113051;28;20052;-47
2022/06/01 05:31:11;;;;;;;14.50;8.98;;;;;;;10.64;85.41;93795.63;5111448;28;20825;-49
2022/06/01 05:33:39;;;;;;;19.45;9.38;;;;;;;10.52;86.47;93797.03;5112852;28;20046;-48
2022/06/01 05:36:07;;;;;;;14.13;9.10;;;;;;;11.52;83.63;93799.09;5112407;28;20496;-48
2022/06/01 05:38:33;;;;;;;11.37;8.03;;;;;;;12.77;79.26;93796.19;5094566;28;20036;-50
2022/06/01 05:41:01;;;;;;;12.35;7.90;;;;;;;13.69;74.64;93794.13;5112073;28;20044;-51
2022/06/01 05:43:28;;;;;;;11.90;8.25;;;;;;;14.91;70.38;93795.09;5112912;28;20071;-50
2022/06/01 05:45:55;;;;;;;10.23;8.07;;;;;;;16.51;64.00;93793.19;5111528;28;20422;-54
2022/06/01 05:48:23;;;;;;;10.20;8.02;;;;;;;16.31;64.52;93798.34;5112826;28;20054;-50
2022/06/01 05:50:56;;;;;;;10.07;7.90;;;;;;;16.55;64.06;93799.34;5112014;28;20051;-47
2022/06/01 05:53:23;;;;;;;9.43;7.70;;;;;;;17.35;60.46;93796.88;5112025;28;20047;-50
2022/06/01 05:55:50;;;;;;;10.05;7.93;;;;;;;17.00;61.93;93793.63;5111842;28;20039;-50
2022/06/01 05:58:20;;;;;;;10.40;8.13;;;;;;;19.93;54.48;93786.56;5112593;28;20050;-47
2022/06/01 06:00:49;;;;;;;8.95;7.03;;;;;;;22.52;46.86;93786.31;5060499;28;20043;-50
2022/06/01 06:03:18;;;;;;;7.60;6.73;;;;;;;22.67;46.10;93783.34;5112575;28;20066;-48
2022/06/01 06:08:38;;;;;;;7.65;6.85;;;;;;;22.72;46.28;93793.84;5110885;28;20032;-51
2022/06/01 06:11:13;;;;;;;7.50;6.30;;;;;;;23.75;43.51;93788.25;5093177;28;22070;-50
2022/06/01 06:13:39;;;;;;;8.85;6.18;;;;;;;25.32;39.89;93781.16;5110593;28;20108;-50
2022/06/01 06:16:07;;;;;;;6.67;5.93;;;;;;;25.48;39.21;93788.75;5109747;28;20047;-50
2022/06/01 06:18:35;;;;;;;8.90;6.60;;;;;;;25.39;39.30;93791.81;5110463;28;20036;-52
2022/06/01 06:21:02;;;;;;;7.88;6.22;;;;;;;25.22;39.98;93793.94;5110191;28;20036;-54
2022/06/01 06:23:29;;;;;;;6.70;5.85;;;;;;;26.03;38.34;93791.06;5108117;28;20042;-50
2022/06/01 06:25:56;;;;;;;7.45;6.30;;;;;;;26.26;37.87;93792.44;5111253;28;20043;-53
2022/06/01 06:28:23;;;;;;;7.70;6.90;;;;;;;25.54;38.73;93794.34;5111133;28;20104;-52
2022/06/01 06:30:51;;;;;;;7.20;6.25;;;;;;;24.82;40.82;93790.41;5111109;28;20433;-48
2022/06/01 06:33:18;;;;;;;7.53;6.63;;;;;;;24.40;41.91;93795.75;5111226;28;20142;-52
2022/06/01 06:35:45;;;;;;;6.72;5.68;;;;;;;25.01;40.61;93785.81;5105194;28;20035;-51
2022/06/01 06:38:12;;;;;;;6.93;5.57;;;;;;;24.03;42.48;93793.94;5111312;28;20039;-55
2022/06/01 06:40:39;;;;;;;6.00;5.30;;;;;;;25.00;40.13;93787.06;5093269;28;20035;-54
2022/06/01 06:43:06;;;;;;;6.18;4.97;;;;;;;25.09;40.12;93791.63;5089675;28;20058;-55
2022/06/01 06:45:32;;;;;;;6.40;5.35;;;;;;;23.00;44.60;93791.22;5108180;28;20450;-53
2022/06/01 06:47:59;;;;;;;6.45;5.55;;;;;;;23.95;42.47;93790.09;5111084;28;20500;-52
2022/06/01 06:50:26;;;;;;;7.10;5.15;;;;;;;24.57;40.77;93795.00;5111499;28;20056;-52
2022/06/01 06:53:13;;;;;;;8.07;4.90;;;;;;;24.59;41.55;93795.25;5103817;28;20436;-54
2022/06/01 06:55:40;;;;;;;7.50;5.97;;;;;;;22.95;43.43;93797.53;5107708;28;20039;-53
2022/06/01 06:58:08;;;;;;;6.97;5.38;;;;;;;22.75;44.52;93804.00;5110817;28;20107;-49
2022/06/01 07:00:36;;;;;;;6.30;5.40;;;;;;;23.69;42.25;93793.06;5092712;28;20050;-56
2022/06/01 07:03:03;;;;;;;8.20;5.50;;;;;;;23.01;44.24;93801.13;5109520;28;20489;-56
2022/06/01 07:08:16;;;;;;;7.65;5.35;;;;;;;22.89;44.85;93796.72;5110031;28;21659;-48
2022/06/01 07:10:43;;;;;;;8.05;5.47;;;;;;;22.99;44.37;93797.28;5111196;28;20043;-52
2022/06/01 07:13:10;;;;;;;6.95;5.30;;;;;;;23.85;42.50;93797.22;5103486;28;20082;-55
2022/06/01 07:15:37;;;;;;;6.32;5.07;;;;;;;23.63;42.94;93798.63;5103217;28;20048;-49
2022/06/01 07:18:05;;;;;;;7.03;5.40;;;;;;;22.76;45.15;93796.38;5110368;28;20047;-52
2022/06/01 07:20:32;;;;;;;7.32;5.18;;;;;;;23.62;42.51;93794.28;5110962;28;20098;-48
2022/06/01 07:22:59;;;;;;;6.32;5.22;;;;;;;23.02;42.59;93787.91;5107860;28;20039;-48
2022/06/01 07:25:28;;;;;;;6.93;5.20;;;;;;;22.34;44.67;93799.38;5110793;28;20477;-52
2022/06/01 07:27:55;;;;;;;6.53;4.93;;;;;;;23.21;43.11;93788.28;5110297;28;20043;-56
2022/06/01 07:30:22;;;;;;;6.00;4.50;;;;;;;24.10;40.24;93790.63;5077994;28;20698;-52
2022/06/01 07:32:49;;;;;;;5.45;4.28;;;;;;;26.07;36.94;93788.72;5110174;28;20058;-52
2022/06/01 07:35:17;;;;;;;7.10;4.35;;;;;;;25.97;36.36;93793.13;5110507;28;20044;-53
2022/06/01 07:43:17;;;;;;;5.60;3.87;;;;;;;26.31;35.78;93785.25;5109955;28;20726;-58
2022/06/01 07:45:46;;;;;;;5.88;3.90;;;;;;;25.01;37.49;93783.00;5108484;28;20044;-52
2022/06/01 07:48:14;;;;;;;5.30;4.20;;;;;;;24.79;37.81;93778.19;5096598;28;20040;-52
2022/06/01 07:51:00;;;;;;;6.18;3.90;;;;;;;23.92;40.25;93774.28;5109882;28;20054;-55
2022/06/01 07:53:27;;;;;;;5.05;4.13;;;;;;;24.31;38.93;93771.53;5083866;28;20077;-53
2022/06/01 07:55:54;;;;;;;5.40;4.00;;;;;;;23.88;39.72;93770.97;5099170;28;20407;-51
2022/06/01 07:58:21;;;;;;;5.03;3.70;;;;;;;24.49;40.52;93780.72;5103844;28;20602;-56
2022/06/01 08:00:48;;;;;;;6.60;4.07;;;;;;;26.31;36.24;93774.00;5109740;28;20439;-52
2022/06/01 08:03:17;;;;;;;5.18;3.95;;;;;;;27.21;33.71;93778.84;5100745;28;20485;-55
2022/06/01 08:05:44;;;;;;;5.25;3.60;;;;;;;23.42;38.76;93770.06;5087374;28;20042;-50
2022/06/01 08:08:10;;;;;;;5.73;3.87;;;;;;;25.41;35.94;93768.84;5110071;28;20395;-59
2022/06/01 08:10:37;;;;;;;5.65;3.80;;;;;;;24.37;38.87;93776.38;5110505;28;20039;-54
2022/06/01 08:13:09;;;;;;;6.32;3.50;;;;;;;24.94;36.95;93763.84;5110068;28;20044;-52
2022/06/01 08:15:46;;;;;;;7.35;3.80;;;;;;;26.41;34.86;93769.56;5091927;28;20058;-54
2022/06/01 08:18:17;;;;;;;5.00;3.40;;;;;;;25.97;35.49;93770.66;5109486;28;20449;-54
2022/06/01 08:20:44;;;;;;;6.83;3.73;;;;;;;24.49;37.10;93766.69;5109498;28;20051;-51
2022/06/01 08:23:20;;;;;;;6.07;3.80;;;;;;;23.22;40.24;93759.78;5108440;28;20039;-53
2022/06/01 08:25:46;;;;;;;5.45;3.30;;;;;;;23.32;39.04;93772.31;5104285;28;20047;-52
2022/06/01 08:28:13;;;;;;;4.90;3.65;;;;;;;22.86;41.10;93764.16;5091971;28;20104;-52
2022/06/01 08:30:40;;;;;;;7.10;3.83;;;;;;;22.54;41.79;93775.41;5098871;28;20044;-52
2022/06/01 08:33:08;;;;;;;6.47;3.90;;;;;;;21.08;45.32;93785.78;5098807;28;20070;-50
2022/06/01 08:35:38;;;;;;;5.72;3.80;;;;;;;20.65;46.43;93780.63;5114006;28;20061;-53
2022/06/01 08:38:05;;;;;;;5.55;3.83;;;;;;;21.36;44.50;93788.94;5113252;28;20075;-52
2022/06/01 08:40:40;;;;;;;5.82;4.10;;;;;;;21.71;43.74;93797.25;5113921;28;20043;-53
2022/06/01 08:43:13;;;;;;;4.75;3.80;;;;;;;21.53;44.01;93792.72;5113504;28;20039;-58
2022/06/01 08:45:45;;;;;;;5.27;4.10;;;;;;;20.86;46.78;93794.63;5113755;28;20050;-49
2022/06/01 08:48:16;;;;;;;5.85;3.70;;;;;;;20.66;46.96;93795.34;5110117;28;21859;-51
2022/06/01 08:50:44;;;;;;;7.18;4.78;;;;;;;20.86;46.61;93800.97;5101048;28;20092;-53
2022/06/01 08:53:11;;;;;;;6.78;4.40;;;;;;;20.34;48.24;93811.78;5112453;28;21460;-51
2022/06/01 08:55:52;;;;;;;8.93;4.03;;;;;;;20.26;47.80;93811.44;5111964;28;20046;-53
2022/06/01 08:58:28;;;;;;;7.03;4.10;;;;;;;20.08;47.62;93814.41;5111628;28;21796;-49
2022/06/01 09:01:01;;;;;;;8.30;4.82;;;;;;;20.15;48.86;93805.66;5113004;28;20044;-56
2022/06/01 09:03:38;;;;;;;7.70;4.55;;;;;;;19.91;49.27;93806.53;5099271;28;20036;-53
2022/06/01 09:06:26;;;;;;;5.43;4.03;;;;;;;20.19;49.05;93811.06;5092447;28;20104;-55
2022/06/01 09:09:05;;;;;;;6.75;4.30;;;;;;;19.94;48.80;93811.16;5099950;28;20043;-51
2022/06/01 09:11:37;;;;;;;6.50;3.90;;;;;;;21.11;46.77;93813.47;5112777;28;20109;-52
2022/06/01 09:14:22;;;;;;;6.85;4.57;;;;;;;21.05;46.54;93823.81;5092770;28;20048;-55
2022/06/01 09:16:51;;;;;;;5.82;4.28;;;;;;;20.73;48.76;93820.81;5110381;28;20051;-49
2022/06/01 09:19:28;;;;;;;8.68;4.53;;;;;;;20.84;49.72;93823.00;5113117;28;20058;-53
2022/06/01 09:24:48;;;;;;;5.30;3.93;;;;;;;21.80;45.74;93826.28;5109290;28;20038;-52
2022/06/01 09:27:17;;;;;;;5.10;3.65;;;;;;;22.46;43.34;93821.84;5094532;28;20046;-52
2022/06/01 09:29:52;;;;;;;4.90;3.35;;;;;;;22.79;40.67;93828.97;5112605;28;20040;-49
2022/06/01 09:32:24;;;;;;;5.57;2.85;;;;;;;23.48;36.43;93820.47;5112795;28;20391;-50
2022/06/01 09:34:51;;;;;;;3.78;2.47;;;;;;;24.35;32.33;93820.97;5112249;28;20103;-56
2022/06/01 09:37:28;;;;;;;3.90;2.20;;;;;;;24.62;31.43;93816.72;5112858;28;20040;-58
2022/06/01 09:40:01;;;;;;;3.67;2.30;;;;;;;25.14;29.78;93816.13;5112374;28;20270;-56
2022/06/01 09:42:40;;;;;;;5.03;2.20;;;;;;;25.89;29.94;93815.38;5112520;28;20039;-54
2022/06/01 09:45:22;;;;;;;5.70;2.10;;;;;;;26.08;28.98;93821.97;5111676;28;20044;-51
2022/06/01 09:47:50;;;;;;;5.32;2.55;;;;;;;26.31;28.02;93813.38;5112204;28;20036;-55
2022/06/01 09:50:33;;;;;;;4.07;2.03;;;;;;;26.51;28.82;93807.34;5112498;28;20423;-58
2022/06/01 09:53:21;;;;;;;3.28;2.22;;;;;;;27.37;27.01;93810.97;5106854;28;20036;-52
2022/06/01 09:56:00;;;;;;;4.35;2.20;;;;;;;27.45;26.46;93808.34;5105803;28;20055;-51
2022/06/01 10:06:56;;;;;;;3.42;2.50;;;;;;;24.15;32.63;93816.38;5099772;28;20039;-52
2022/06/01 10:09:26;;;;;;;3.25;2.40;;;;;;;23.74;32.51;93814.72;5112271;28;20036;-50
2022/06/01 10:11:54;;;;;;;4.20;2.47;;;;;;;24.35;31.20;93815.38;5111450;28;20062;-51
2022/06/01 10:14:25;;;;;;;4.43;2.58;;;;;;;23.29;32.82;93815.31;5112245;28;20039;-48
2022/06/01 10:17:29;;;;;;;4.33;2.90;;;;;;;23.29;33.23;93818.09;5093432;28;20039;-50
2022/06/01 10:20:01;;;;;;;4.05;2.90;;;;;;;23.12;34.09;93820.81;5111145;28;20032;-54
2022/06/01 10:23:05;;;;;;;4.47;2.80;;;;;;;23.26;33.52;93818.31;5093686;28;20103;-53
2022/06/01 10:25:40;;;;;;;5.97;2.80;;;;;;;22.97;34.42;93817.38;5059718;28;21726;-54
2022/06/01 10:28:15;;;;;;;4.55;2.40;;;;;;;22.74;34.96;93828.44;5111418;28;20102;-51
2022/06/01 10:31:04;;;;;;;4.80;2.80;;;;;;;22.97;34.79;93828.56;5111330;28;20050;-52
2022/06/01 10:33:38;;;;;;;3.90;2.70;;;;;;;22.74;35.03;93824.88;5111684;28;20385;-49
2022/06/01 10:36:12;;;;;;;4.95;2.75;;;;;;;22.32;35.60;93826.31;5111171;28;20035;-51
2022/06/01 10:38:50;;;;;;;4.47;2.80;;;;;;;22.77;36.07;93832.25;5111698;28;20074;-49
2022/06/01 10:41:25;;;;;;;4.40;2.90;;;;;;;22.96;36.50;93841.06;5092388;28;20036;-56
2022/06/01 10:44:02;;;;;;;4.13;2.90;;;;;;;23.42;34.97;93828.09;5111011;28;20040;-53
2022/06/01 10:46:48;;;;;;;4.72;2.90;;;;;;;23.48;35.04;93823.28;5111555;28;20044;-56
2022/06/01 10:49:34;;;;;;;4.50;2.90;;;;;;;23.15;35.00;93821.09;5083424;28;20042;-50
2022/06/01 10:52:25;;;;;;;4.15;2.70;;;;;;;22.91;34.65;93819.38;5108307;28;20038;-54
2022/06/01 10:55:06;;;;;;;4.68;2.80;;;;;;;22.21;35.36;93823.38;5110859;28;20054;-50
2022/06/01 10:57:36;;;;;;;4.77;2.97;;;;;;;22.34;36.31;93813.34;5111210;28;20677;-53
2022/06/01 11:00:06;;;;;;;5.25;2.78;;;;;;;22.43;36.51;93826.38;5110744;28;20415;-53
2022/06/01 11:03:00;;;;;;;6.28;2.88;;;;;;;22.24;36.74;93819.63;5110869;28;20044;-53
2022/06/01 11:05:41;;;;;;;4.25;2.80;;;;;;;22.39;36.27;93814.66;5110440;28;20735;-50
2022/06/01 11:08:26;;;;;;;4.90;3.00;;;;;;;22.26;36.12;93820.66;5110612;28;20484;-49
2022/06/01 11:11:07;;;;;;;3.90;2.60;;;;;;;21.66;36.01;93827.88;5110447;28;20381;-50
2022/06/01 11:13:41;;;;;;;3.67;2.42;;;;;;;21.37;36.50;93814.81;5110857;28;20040;-50
2022/06/01 11:16:27;;;;;;;5.32;2.70;;;;;;;21.66;36.78;93825.84;5110586;28;20400;-51
2022/06/01 11:18:59;;;;;;;4.38;2.63;;;;;;;22.21;36.54;93821.34;5110354;28;20044;-57
2022/06/01 11:21:45;;;;;;;4.47;2.50;;;;;;;21.77;35.75;93827.25;5105927;28;20419;-52
2022/06/01 11:24:25;;;;;;;3.93;2.30;;;;;;;21.43;34.73;93836.00;5100623;28;20474;-55
2022/06/01 11:27:17;;;;;;;3.40;2.00;;;;;;;21.35;35.11;93829.28;5107693;28;20051;-49
2022/06/01 11:29:57;;;;;;;3.00;1.90;;;;;;;21.48;34.18;93826.91;5110888;28;20357;-55
2022/06/01 11:32:31;;;;;;;3.65;2.30;;;;;;;21.78;33.27;93829.53;5109801;28;20047;-53
2022/06/01 11:35:14;;;;;;;4.50;2.15;;;;;;;21.06;34.89;93824.56;5110022;28;20047;-52
2022/06/01 11:37:52;;;;;;;3.97;2.20;;;;;;;20.84;34.68;93828.56;5097442;28;20036;-51
2022/06/01 11:40:34;;;;;;;4.05;2.05;;;;;;;21.01;33.97;93830.84;5096049;28;20592;-51
2022/06/01 11:43:07;;;;;;;3.47;1.90;;;;;;;21.13;34.04;93840.91;5109725;28;20040;-56
2022/06/01 11:45:42;;;;;;;4.20;2.20;;;;;;;21.40;33.26;93844.56;5110657;28;20108;-50
2022/06/01 11:48:12;;;;;;;2.92;1.88;;;;;;;20.80;34.44;93843.97;5110100;28;20039;-49
2022/06/01 11:51:16;;;;;;;4.40;2.20;;;;;;;20.50;34.51;93855.94;5110323;28;20040;-52
2022/06/01 11:54:04;;;;;;;3.90;2.40;;;;;;;20.72;34.88;93858.31;5098560;28;20612;-52
2022/06/01 11:56:36;;;;;;;3.42;2.10;;;;;;;20.84;34.70;93858.47;5100744;28;20052;-56
2022/06/01 11:59:27;;;;;;;3.38;2.10;;;;;;;20.35;35.32;93883.78;5109777;28;20510;-52
2022/06/01 12:01:56;;;;;;;4.82;2.45;;;;;;;19.97;35.53;93867.91;5110153;28;20044;-56
2022/06/01 12:04:23;;;;;;;4.37;2.00;;;;;;;19.51;37.63;93879.38;5110212;28;20047;-53
2022/06/01 12:06:56;;;;;;;5.10;2.40;;;;;;;19.68;36.92;93865.78;5110043;28;20500;-52
2022/06/01 12:10:03;;;;;;;4.82;2.78;;;;;;;20.15;35.95;93855.81;5113388;28;20046;-50
2022/06/01 12:12:33;;;;;;;4.80;1.88;;;;;;;20.25;35.38;93864.84;5113381;28;20615;-49
2022/06/01 12:15:32;;;;;;;3.38;2.30;;;;;;;20.35;35.38;93864.28;5113997;28;20058;-49
2022/06/01 12:18:11;;;;;;;3.73;2.20;;;;;;;20.13;36.77;93886.94;5113873;28;20104;-52
2022/06/01 12:20:37;;;;;;;3.22;1.60;;;;;;;19.79;32.97;93860.47;5104267;28;20042;-53
2022/06/01 12:28:56;;;;;;;2.90;1.35;;;;;;;19.36;32.72;93845.94;5107608;28;20039;-52
2022/06/01 12:31:26;;;;;;;2.10;1.20;;;;;;;19.82;32.18;93847.59;5114318;28;20046;-49